sensor_id;sensor_type;location;lat;lon;timestamp;P1;durP1;ratioP1;P2;durP2;ratioP2
42866;SDS011;39461;40.948;73.006;2022-07-17T00:01:17;10.80;;;2.42;;
42866;SDS011;39461;40.948;73.006;2022-07-17T00:03:51;6.72;;;2.20;;
42866;SDS011;39461;40.948;73.006;2022-07-17T00:06:24;5.72;;;1.90;;
42866;SDS011;39461;40.948;73.006;2022-07-17T00:08:56;2.70;;;1.55;;
42866;SDS011;39461;40.948;73.006;2022-07-17T00:11:31;5.82;;;2.25;;
42866;SDS011;39461;40.948;73.006;2022-07-17T00:14:04;6.32;;;2.38;;
42866;SDS011;39461;40.948;73.006;2022-07-17T00:16:37;8.63;;;2.17;;
42866;SDS011;39461;40.948;73.006;2022-07-17T00:19:10;9.35;;;2.25;;
42866;SDS011;39461;40.948;73.006;2022-07-17T00:21:45;35.05;;;5.18;;
42866;SDS011;39461;40.948;73.006;2022-07-17T00:24:27;10.40;;;2.05;;
42866;SDS011;39461;40.948;73.006;2022-07-17T00:27:00;12.82;;;2.55;;
42866;SDS011;39461;40.948;73.006;2022-07-17T00:29:33;8.13;;;2.67;;
42866;SDS011;39461;40.948;73.006;2022-07-17T00:32:13;6.13;;;2.25;;
42866;SDS011;39461;40.948;73.006;2022-07-17T00:34:45;6.85;;;2.28;;
42866;SDS011;39461;40.948;73.006;2022-07-17T00:37:18;7.18;;;2.88;;
42866;SDS011;39461;40.948;73.006;2022-07-17T00:39:51;8.90;;;2.72;;
42866;SDS011;39461;40.948;73.006;2022-07-17T00:42:25;8.27;;;3.17;;
42866;SDS011;39461;40.948;73.006;2022-07-17T00:44:58;9.95;;;3.70;;
42866;SDS011;39461;40.948;73.006;2022-07-17T00:50:26;10.10;;;3.22;;
42866;SDS011;39461;40.948;73.006;2022-07-17T00:53:03;10.18;;;3.88;;
42866;SDS011;39461;40.948;73.006;2022-07-17T00:55:39;11.60;;;4.22;;
42866;SDS011;39461;40.948;73.006;2022-07-17T00:58:20;9.88;;;3.58;;
42866;SDS011;39461;40.948;73.006;2022-07-17T01:01:02;11.18;;;4.80;;
42866;SDS011;39461;40.948;73.006;2022-07-17T01:03:39;9.15;;;3.88;;
42866;SDS011;39461;40.948;73.006;2022-07-17T01:06:14;13.25;;;5.55;;
42866;SDS011;39461;40.948;73.006;2022-07-17T01:08:49;18.52;;;6.68;;
42866;SDS011;39461;40.948;73.006;2022-07-17T01:11:24;16.10;;;5.78;;
42866;SDS011;39461;40.948;73.006;2022-07-17T01:16:58;16.52;;;7.15;;
42866;SDS011;39461;40.948;73.006;2022-07-17T01:19:33;18.02;;;6.72;;
42866;SDS011;39461;40.948;73.006;2022-07-17T01:22:08;19.27;;;7.78;;
42866;SDS011;39461;40.948;73.006;2022-07-17T01:27:42;17.52;;;7.05;;
42866;SDS011;39461;40.948;73.006;2022-07-17T01:30:17;20.95;;;6.95;;
42866;SDS011;39461;40.948;73.006;2022-07-17T01:38:50;14.63;;;6.53;;
42866;SDS011;39461;40.948;73.006;2022-07-17T01:41:26;14.90;;;6.80;;
42866;SDS011;39461;40.948;73.006;2022-07-17T01:44:00;21.35;;;7.40;;
42866;SDS011;39461;40.948;73.006;2022-07-17T01:46:31;12.40;;;5.38;;
42866;SDS011;39461;40.948;73.006;2022-07-17T01:49:00;15.88;;;5.72;;
42866;SDS011;39461;40.948;73.006;2022-07-17T01:51:34;17.17;;;5.32;;
42866;SDS011;39461;40.948;73.006;2022-07-17T01:54:06;16.63;;;4.82;;
42866;SDS011;39461;40.948;73.006;2022-07-17T01:56:39;11.98;;;4.47;;
42866;SDS011;39461;40.948;73.006;2022-07-17T01:59:12;10.50;;;4.13;;
42866;SDS011;39461;40.948;73.006;2022-07-17T02:01:45;14.65;;;4.13;;
42866;SDS011;39461;40.948;73.006;2022-07-17T02:04:18;13.15;;;4.60;;
42866;SDS011;39461;40.948;73.006;2022-07-17T02:06:55;14.32;;;4.35;;
42866;SDS011;39461;40.948;73.006;2022-07-17T02:09:28;19.45;;;5.90;;
42866;SDS011;39461;40.948;73.006;2022-07-17T02:12:00;22.02;;;7.10;;
42866;SDS011;39461;40.948;73.006;2022-07-17T02:14:34;18.30;;;7.38;;
42866;SDS011;39461;40.948;73.006;2022-07-17T02:17:12;19.67;;;7.65;;
42866;SDS011;39461;40.948;73.006;2022-07-17T02:19:44;20.13;;;10.55;;
42866;SDS011;39461;40.948;73.006;2022-07-17T02:22:19;28.58;;;16.33;;
42866;SDS011;39461;40.948;73.006;2022-07-17T02:24:52;32.10;;;13.55;;
42866;SDS011;39461;40.948;73.006;2022-07-17T02:27:27;25.92;;;11.50;;
42866;SDS011;39461;40.948;73.006;2022-07-17T02:33:02;15.43;;;7.18;;
42866;SDS011;39461;40.948;73.006;2022-07-17T02:35:37;16.90;;;6.10;;
42866;SDS011;39461;40.948;73.006;2022-07-17T02:38:12;12.27;;;5.30;;
42866;SDS011;39461;40.948;73.006;2022-07-17T02:43:48;26.67;;;7.93;;
42866;SDS011;39461;40.948;73.006;2022-07-17T02:46:23;12.93;;;5.65;;
42866;SDS011;39461;40.948;73.006;2022-07-17T02:48:58;15.82;;;5.90;;
42866;SDS011;39461;40.948;73.006;2022-07-17T02:51:32;15.85;;;5.13;;
42866;SDS011;39461;40.948;73.006;2022-07-17T02:54:05;15.65;;;5.57;;
42866;SDS011;39461;40.948;73.006;2022-07-17T02:56:45;14.10;;;4.70;;
42866;SDS011;39461;40.948;73.006;2022-07-17T02:59:17;19.92;;;5.43;;
42866;SDS011;39461;40.948;73.006;2022-07-17T03:01:50;15.02;;;5.13;;
42866;SDS011;39461;40.948;73.006;2022-07-17T03:04:30;19.63;;;5.75;;
42866;SDS011;39461;40.948;73.006;2022-07-17T03:06:57;12.15;;;4.90;;
42866;SDS011;39461;40.948;73.006;2022-07-17T03:09:29;10.35;;;3.78;;
42866;SDS011;39461;40.948;73.006;2022-07-17T03:12:02;13.77;;;4.60;;
42866;SDS011;39461;40.948;73.006;2022-07-17T03:14:37;14.45;;;4.50;;
42866;SDS011;39461;40.948;73.006;2022-07-17T03:17:10;9.38;;;3.40;;
42866;SDS011;39461;40.948;73.006;2022-07-17T03:19:43;10.52;;;3.50;;
42866;SDS011;39461;40.948;73.006;2022-07-17T03:22:18;6.70;;;3.03;;
42866;SDS011;39461;40.948;73.006;2022-07-17T03:24:57;6.55;;;2.72;;
42866;SDS011;39461;40.948;73.006;2022-07-17T03:27:30;5.50;;;2.40;;
42866;SDS011;39461;40.948;73.006;2022-07-17T03:30:06;9.82;;;2.60;;
42866;SDS011;39461;40.948;73.006;2022-07-17T03:35:40;13.18;;;3.03;;
42866;SDS011;39461;40.948;73.006;2022-07-17T03:38:15;8.30;;;2.80;;
42866;SDS011;39461;40.948;73.006;2022-07-17T03:40:50;13.73;;;3.80;;
42866;SDS011;39461;40.948;73.006;2022-07-17T03:43:23;11.70;;;2.95;;
42866;SDS011;39461;40.948;73.006;2022-07-17T03:45:50;6.60;;;2.30;;
42866;SDS011;39461;40.948;73.006;2022-07-17T03:48:17;7.93;;;2.70;;
42866;SDS011;39461;40.948;73.006;2022-07-17T03:50:44;11.35;;;2.85;;
42866;SDS011;39461;40.948;73.006;2022-07-17T03:53:16;8.43;;;2.40;;
42866;SDS011;39461;40.948;73.006;2022-07-17T03:55:49;9.52;;;3.00;;
42866;SDS011;39461;40.948;73.006;2022-07-17T03:58:24;6.45;;;2.75;;
42866;SDS011;39461;40.948;73.006;2022-07-17T04:00:58;9.02;;;3.00;;
42866;SDS011;39461;40.948;73.006;2022-07-17T04:03:31;10.00;;;2.80;;
42866;SDS011;39461;40.948;73.006;2022-07-17T04:06:05;13.85;;;2.83;;
42866;SDS011;39461;40.948;73.006;2022-07-17T04:08:38;7.13;;;2.90;;
42866;SDS011;39461;40.948;73.006;2022-07-17T04:11:11;6.50;;;3.22;;
42866;SDS011;39461;40.948;73.006;2022-07-17T04:13:44;9.20;;;3.13;;
42866;SDS011;39461;40.948;73.006;2022-07-17T04:16:24;8.40;;;2.80;;
42866;SDS011;39461;40.948;73.006;2022-07-17T04:18:59;7.47;;;2.92;;
42866;SDS011;39461;40.948;73.006;2022-07-17T04:21:33;7.25;;;3.00;;
42866;SDS011;39461;40.948;73.006;2022-07-17T04:24:06;12.77;;;3.05;;
42866;SDS011;39461;40.948;73.006;2022-07-17T04:26:45;6.70;;;2.85;;
42866;SDS011;39461;40.948;73.006;2022-07-17T04:29:18;11.30;;;3.30;;
42866;SDS011;39461;40.948;73.006;2022-07-17T04:31:51;9.93;;;2.75;;
42866;SDS011;39461;40.948;73.006;2022-07-17T04:34:24;8.38;;;3.05;;
42866;SDS011;39461;40.948;73.006;2022-07-17T04:36:57;8.07;;;2.65;;
42866;SDS011;39461;40.948;73.006;2022-07-17T04:39:31;7.05;;;3.58;;
42866;SDS011;39461;40.948;73.006;2022-07-17T04:42:03;8.27;;;2.97;;
42866;SDS011;39461;40.948;73.006;2022-07-17T04:44:38;11.65;;;3.03;;
42866;SDS011;39461;40.948;73.006;2022-07-17T04:47:11;9.00;;;3.35;;
42866;SDS011;39461;40.948;73.006;2022-07-17T04:49:44;10.98;;;2.92;;
42866;SDS011;39461;40.948;73.006;2022-07-17T04:52:17;13.75;;;3.60;;
42866;SDS011;39461;40.948;73.006;2022-07-17T04:54:50;8.95;;;3.35;;
42866;SDS011;39461;40.948;73.006;2022-07-17T04:57:26;12.73;;;3.70;;
42866;SDS011;39461;40.948;73.006;2022-07-17T04:59:56;10.65;;;3.90;;
42866;SDS011;39461;40.948;73.006;2022-07-17T05:02:29;14.02;;;4.25;;
42866;SDS011;39461;40.948;73.006;2022-07-17T05:05:02;10.05;;;3.00;;
42866;SDS011;39461;40.948;73.006;2022-07-17T05:07:30;18.95;;;4.18;;
42866;SDS011;39461;40.948;73.006;2022-07-17T05:09:56;10.55;;;2.92;;
42866;SDS011;39461;40.948;73.006;2022-07-17T05:12:29;10.55;;;3.00;;
42866;SDS011;39461;40.948;73.006;2022-07-17T05:14:56;14.55;;;3.55;;
42866;SDS011;39461;40.948;73.006;2022-07-17T05:17:30;13.82;;;3.83;;
42866;SDS011;39461;40.948;73.006;2022-07-17T05:20:09;9.45;;;3.75;;
42866;SDS011;39461;40.948;73.006;2022-07-17T05:22:42;10.73;;;2.95;;
42866;SDS011;39461;40.948;73.006;2022-07-17T05:25:15;13.48;;;3.53;;
42866;SDS011;39461;40.948;73.006;2022-07-17T05:27:48;14.38;;;3.33;;
42866;SDS011;39461;40.948;73.006;2022-07-17T05:30:21;10.43;;;3.40;;
42866;SDS011;39461;40.948;73.006;2022-07-17T05:32:50;11.85;;;3.28;;
42866;SDS011;39461;40.948;73.006;2022-07-17T05:35:23;15.80;;;3.97;;
42866;SDS011;39461;40.948;73.006;2022-07-17T05:38:01;8.25;;;3.55;;
42866;SDS011;39461;40.948;73.006;2022-07-17T05:40:34;9.57;;;3.75;;
42866;SDS011;39461;40.948;73.006;2022-07-17T05:43:01;8.88;;;4.32;;
42866;SDS011;39461;40.948;73.006;2022-07-17T05:45:34;12.77;;;4.70;;
42866;SDS011;39461;40.948;73.006;2022-07-17T05:48:01;10.15;;;4.40;;
42866;SDS011;39461;40.948;73.006;2022-07-17T05:50:34;9.65;;;3.90;;
42866;SDS011;39461;40.948;73.006;2022-07-17T05:53:10;16.38;;;4.93;;
42866;SDS011;39461;40.948;73.006;2022-07-17T05:55:44;10.32;;;3.83;;
42866;SDS011;39461;40.948;73.006;2022-07-17T05:58:19;12.20;;;4.75;;
42866;SDS011;39461;40.948;73.006;2022-07-17T06:00:52;7.53;;;3.83;;
42866;SDS011;39461;40.948;73.006;2022-07-17T06:03:25;8.07;;;3.63;;
42866;SDS011;39461;40.948;73.006;2022-07-17T06:06:00;7.97;;;3.80;;
42866;SDS011;39461;40.948;73.006;2022-07-17T06:08:35;9.63;;;3.97;;
42866;SDS011;39461;40.948;73.006;2022-07-17T06:11:10;6.40;;;3.05;;
42866;SDS011;39461;40.948;73.006;2022-07-17T06:13:43;9.15;;;3.60;;
42866;SDS011;39461;40.948;73.006;2022-07-17T06:16:16;9.93;;;4.55;;
42866;SDS011;39461;40.948;73.006;2022-07-17T06:18:50;17.20;;;4.30;;
42866;SDS011;39461;40.948;73.006;2022-07-17T06:21:24;8.20;;;3.95;;
42866;SDS011;39461;40.948;73.006;2022-07-17T06:23:59;15.52;;;4.38;;
42866;SDS011;39461;40.948;73.006;2022-07-17T06:26:33;11.60;;;4.35;;
42866;SDS011;39461;40.948;73.006;2022-07-17T06:29:08;12.15;;;4.60;;
42866;SDS011;39461;40.948;73.006;2022-07-17T06:31:43;12.13;;;4.63;;
42866;SDS011;39461;40.948;73.006;2022-07-17T06:34:12;10.05;;;3.80;;
42866;SDS011;39461;40.948;73.006;2022-07-17T06:36:47;10.60;;;3.92;;
42866;SDS011;39461;40.948;73.006;2022-07-17T06:39:22;7.70;;;3.10;;
42866;SDS011;39461;40.948;73.006;2022-07-17T06:42:00;9.20;;;3.42;;
42866;SDS011;39461;40.948;73.006;2022-07-17T06:44:36;6.97;;;2.90;;
42866;SDS011;39461;40.948;73.006;2022-07-17T06:47:11;12.27;;;3.65;;
42866;SDS011;39461;40.948;73.006;2022-07-17T06:49:46;9.82;;;3.33;;
42866;SDS011;39461;40.948;73.006;2022-07-17T06:52:19;10.18;;;3.75;;
42866;SDS011;39461;40.948;73.006;2022-07-17T06:54:48;10.05;;;3.40;;
42866;SDS011;39461;40.948;73.006;2022-07-17T06:57:21;6.43;;;2.70;;
42866;SDS011;39461;40.948;73.006;2022-07-17T06:59:54;15.70;;;4.60;;
42866;SDS011;39461;40.948;73.006;2022-07-17T07:02:27;11.70;;;3.33;;
42866;SDS011;39461;40.948;73.006;2022-07-17T07:05:00;10.93;;;3.47;;
42866;SDS011;39461;40.948;73.006;2022-07-17T07:07:40;9.40;;;3.65;;
42866;SDS011;39461;40.948;73.006;2022-07-17T07:10:13;7.60;;;3.05;;
42866;SDS011;39461;40.948;73.006;2022-07-17T07:12:46;13.60;;;3.63;;
42866;SDS011;39461;40.948;73.006;2022-07-17T07:15:18;7.53;;;3.35;;
42866;SDS011;39461;40.948;73.006;2022-07-17T07:17:58;6.00;;;3.33;;
42866;SDS011;39461;40.948;73.006;2022-07-17T07:20:31;9.52;;;4.00;;
42866;SDS011;39461;40.948;73.006;2022-07-17T07:23:01;7.82;;;3.00;;
42866;SDS011;39461;40.948;73.006;2022-07-17T07:25:34;9.95;;;3.03;;
42866;SDS011;39461;40.948;73.006;2022-07-17T07:28:07;11.57;;;3.58;;
42866;SDS011;39461;40.948;73.006;2022-07-17T07:30:41;4.65;;;2.80;;
42866;SDS011;39461;40.948;73.006;2022-07-17T07:33:17;8.75;;;2.88;;
42866;SDS011;39461;40.948;73.006;2022-07-17T07:35:49;8.05;;;3.25;;
42866;SDS011;39461;40.948;73.006;2022-07-17T07:38:22;7.45;;;2.53;;
42866;SDS011;39461;40.948;73.006;2022-07-17T07:40:55;8.18;;;2.78;;
42866;SDS011;39461;40.948;73.006;2022-07-17T07:43:26;7.95;;;2.70;;
42866;SDS011;39461;40.948;73.006;2022-07-17T07:45:59;10.35;;;2.78;;
42866;SDS011;39461;40.948;73.006;2022-07-17T07:48:26;9.50;;;2.78;;
42866;SDS011;39461;40.948;73.006;2022-07-17T07:50:59;10.65;;;2.70;;
42866;SDS011;39461;40.948;73.006;2022-07-17T07:53:32;9.25;;;2.60;;
42866;SDS011;39461;40.948;73.006;2022-07-17T07:56:05;6.10;;;2.30;;
42866;SDS011;39461;40.948;73.006;2022-07-17T07:58:38;9.85;;;2.35;;
42866;SDS011;39461;40.948;73.006;2022-07-17T08:01:11;6.88;;;1.98;;
42866;SDS011;39461;40.948;73.006;2022-07-17T08:03:50;8.40;;;2.95;;
42866;SDS011;39461;40.948;73.006;2022-07-17T08:06:23;5.93;;;2.20;;
42866;SDS011;39461;40.948;73.006;2022-07-17T08:08:50;4.55;;;1.70;;
42866;SDS011;39461;40.948;73.006;2022-07-17T08:11:25;5.75;;;1.70;;
42866;SDS011;39461;40.948;73.006;2022-07-17T08:14:00;8.77;;;2.80;;
42866;SDS011;39461;40.948;73.006;2022-07-17T08:19:27;5.95;;;2.10;;
42866;SDS011;39461;40.948;73.006;2022-07-17T08:22:00;3.67;;;1.67;;
42866;SDS011;39461;40.948;73.006;2022-07-17T08:24:33;4.50;;;1.48;;
42866;SDS011;39461;40.948;73.006;2022-07-17T08:27:05;7.50;;;2.25;;
42866;SDS011;39461;40.948;73.006;2022-07-17T08:29:40;6.68;;;2.03;;
42866;SDS011;39461;40.948;73.006;2022-07-17T08:32:15;7.38;;;2.08;;
42866;SDS011;39461;40.948;73.006;2022-07-17T08:34:48;4.65;;;2.03;;
42866;SDS011;39461;40.948;73.006;2022-07-17T08:37:21;8.48;;;1.90;;
42866;SDS011;39461;40.948;73.006;2022-07-17T08:40:02;12.55;;;2.65;;
42866;SDS011;39461;40.948;73.006;2022-07-17T08:42:41;4.60;;;2.40;;
42866;SDS011;39461;40.948;73.006;2022-07-17T08:45:14;6.45;;;2.10;;
42866;SDS011;39461;40.948;73.006;2022-07-17T08:47:49;7.53;;;2.50;;
42866;SDS011;39461;40.948;73.006;2022-07-17T08:50:26;3.95;;;2.03;;
42866;SDS011;39461;40.948;73.006;2022-07-17T08:53:03;6.95;;;2.40;;
42866;SDS011;39461;40.948;73.006;2022-07-17T08:55:31;10.38;;;2.30;;
42866;SDS011;39461;40.948;73.006;2022-07-17T08:58:04;7.03;;;2.78;;
42866;SDS011;39461;40.948;73.006;2022-07-17T09:00:37;5.53;;;2.60;;
42866;SDS011;39461;40.948;73.006;2022-07-17T09:03:10;5.35;;;2.85;;
42866;SDS011;39461;40.948;73.006;2022-07-17T09:09:06;7.90;;;3.22;;
42866;SDS011;39461;40.948;73.006;2022-07-17T09:11:49;8.65;;;3.28;;
42866;SDS011;39461;40.948;73.006;2022-07-17T09:14:23;6.40;;;3.15;;
42866;SDS011;39461;40.948;73.006;2022-07-17T09:16:57;12.40;;;3.08;;
42866;SDS011;39461;40.948;73.006;2022-07-17T09:19:39;11.50;;;3.15;;
42866;SDS011;39461;40.948;73.006;2022-07-17T09:22:17;14.25;;;3.88;;
42866;SDS011;39461;40.948;73.006;2022-07-17T09:24:55;11.15;;;4.22;;
42866;SDS011;39461;40.948;73.006;2022-07-17T09:27:38;8.50;;;3.15;;
42866;SDS011;39461;40.948;73.006;2022-07-17T09:30:13;13.32;;;3.78;;
42866;SDS011;39461;40.948;73.006;2022-07-17T09:32:48;14.38;;;3.55;;
42866;SDS011;39461;40.948;73.006;2022-07-17T09:35:24;9.35;;;3.65;;
42866;SDS011;39461;40.948;73.006;2022-07-17T09:37:58;5.53;;;3.53;;
42866;SDS011;39461;40.948;73.006;2022-07-17T09:40:35;13.68;;;4.05;;
42866;SDS011;39461;40.948;73.006;2022-07-17T09:43:37;12.00;;;3.17;;
42866;SDS011;39461;40.948;73.006;2022-07-17T09:46:18;11.93;;;3.22;;
42866;SDS011;39461;40.948;73.006;2022-07-17T09:48:48;12.63;;;2.90;;
42866;SDS011;39461;40.948;73.006;2022-07-17T09:51:17;9.25;;;2.63;;
42866;SDS011;39461;40.948;73.006;2022-07-17T09:53:52;5.38;;;2.70;;
42866;SDS011;39461;40.948;73.006;2022-07-17T09:56:28;7.18;;;2.65;;
42866;SDS011;39461;40.948;73.006;2022-07-17T09:59:03;12.50;;;3.15;;
42866;SDS011;39461;40.948;73.006;2022-07-17T10:01:32;7.97;;;3.15;;
42866;SDS011;39461;40.948;73.006;2022-07-17T10:04:00;5.13;;;2.55;;
42866;SDS011;39461;40.948;73.006;2022-07-17T10:06:33;12.43;;;3.50;;
42866;SDS011;39461;40.948;73.006;2022-07-17T10:09:07;7.75;;;3.35;;
42866;SDS011;39461;40.948;73.006;2022-07-17T10:11:41;8.55;;;3.20;;
42866;SDS011;39461;40.948;73.006;2022-07-17T10:14:15;8.90;;;2.58;;
42866;SDS011;39461;40.948;73.006;2022-07-17T10:16:50;11.23;;;3.38;;
42866;SDS011;39461;40.948;73.006;2022-07-17T10:24:31;7.10;;;3.17;;
42866;SDS011;39461;40.948;73.006;2022-07-17T10:27:20;9.77;;;2.65;;
42866;SDS011;39461;40.948;73.006;2022-07-17T10:30:06;8.00;;;2.70;;
42866;SDS011;39461;40.948;73.006;2022-07-17T10:32:50;9.57;;;2.72;;
42866;SDS011;39461;40.948;73.006;2022-07-17T10:35:25;13.80;;;3.00;;
42866;SDS011;39461;40.948;73.006;2022-07-17T10:38:20;12.48;;;3.45;;
42866;SDS011;39461;40.948;73.006;2022-07-17T10:41:00;26.60;;;4.50;;
42866;SDS011;39461;40.948;73.006;2022-07-17T10:43:43;10.85;;;4.07;;
42866;SDS011;39461;40.948;73.006;2022-07-17T10:46:10;7.50;;;3.67;;
42866;SDS011;39461;40.948;73.006;2022-07-17T10:48:47;9.38;;;3.35;;
42866;SDS011;39461;40.948;73.006;2022-07-17T10:51:25;12.07;;;3.40;;
42866;SDS011;39461;40.948;73.006;2022-07-17T10:54:05;5.40;;;2.90;;
42866;SDS011;39461;40.948;73.006;2022-07-17T10:56:41;7.70;;;2.80;;
42866;SDS011;39461;40.948;73.006;2022-07-17T10:59:10;7.35;;;2.53;;
42866;SDS011;39461;40.948;73.006;2022-07-17T11:01:43;8.90;;;2.85;;
42866;SDS011;39461;40.948;73.006;2022-07-17T11:04:17;12.48;;;2.85;;
42866;SDS011;39461;40.948;73.006;2022-07-17T11:06:51;6.57;;;2.55;;
42866;SDS011;39461;40.948;73.006;2022-07-17T11:09:23;7.28;;;2.50;;
42866;SDS011;39461;40.948;73.006;2022-07-17T11:11:57;6.38;;;2.58;;
42866;SDS011;39461;40.948;73.006;2022-07-17T11:14:24;4.95;;;2.80;;
42866;SDS011;39461;40.948;73.006;2022-07-17T11:17:00;11.00;;;3.63;;
42866;SDS011;39461;40.948;73.006;2022-07-17T11:19:38;5.72;;;3.03;;
42866;SDS011;39461;40.948;73.006;2022-07-17T11:22:23;7.07;;;3.08;;
42866;SDS011;39461;40.948;73.006;2022-07-17T11:27:57;8.88;;;3.20;;
42866;SDS011;39461;40.948;73.006;2022-07-17T11:30:32;10.00;;;3.60;;
42866;SDS011;39461;40.948;73.006;2022-07-17T11:33:14;11.88;;;4.03;;
42866;SDS011;39461;40.948;73.006;2022-07-17T11:35:49;14.82;;;3.63;;
42866;SDS011;39461;40.948;73.006;2022-07-17T11:38:25;11.27;;;3.60;;
42866;SDS011;39461;40.948;73.006;2022-07-17T11:41:00;7.47;;;3.28;;
42866;SDS011;39461;40.948;73.006;2022-07-17T11:43:41;7.60;;;3.35;;
42866;SDS011;39461;40.948;73.006;2022-07-17T11:46:14;10.20;;;3.65;;
42866;SDS011;39461;40.948;73.006;2022-07-17T11:48:42;13.18;;;3.75;;
42866;SDS011;39461;40.948;73.006;2022-07-17T11:51:10;8.95;;;3.75;;
42866;SDS011;39461;40.948;73.006;2022-07-17T11:53:43;7.57;;;3.67;;
42866;SDS011;39461;40.948;73.006;2022-07-17T11:56:20;9.73;;;3.42;;
42866;SDS011;39461;40.948;73.006;2022-07-17T11:58:47;8.82;;;3.95;;
42866;SDS011;39461;40.948;73.006;2022-07-17T12:01:14;11.82;;;3.78;;
42866;SDS011;39461;40.948;73.006;2022-07-17T12:03:57;12.60;;;4.25;;
42866;SDS011;39461;40.948;73.006;2022-07-17T12:06:32;11.20;;;3.70;;
42866;SDS011;39461;40.948;73.006;2022-07-17T12:09:06;13.57;;;4.10;;
42866;SDS011;39461;40.948;73.006;2022-07-17T12:11:44;15.65;;;4.22;;
42866;SDS011;39461;40.948;73.006;2022-07-17T12:14:21;10.82;;;3.80;;
42866;SDS011;39461;40.948;73.006;2022-07-17T12:16:56;13.45;;;4.22;;
42866;SDS011;39461;40.948;73.006;2022-07-17T12:19:32;12.13;;;4.30;;
42866;SDS011;39461;40.948;73.006;2022-07-17T12:22:01;8.48;;;4.38;;
42866;SDS011;39461;40.948;73.006;2022-07-17T12:24:30;13.65;;;4.72;;
42866;SDS011;39461;40.948;73.006;2022-07-17T12:26:59;9.93;;;4.20;;
42866;SDS011;39461;40.948;73.006;2022-07-17T12:29:28;9.13;;;4.47;;
42866;SDS011;39461;40.948;73.006;2022-07-17T12:34:29;13.38;;;5.85;;
42866;SDS011;39461;40.948;73.006;2022-07-17T12:36:56;16.60;;;7.75;;
42866;SDS011;39461;40.948;73.006;2022-07-17T12:39:25;11.02;;;5.82;;
42866;SDS011;39461;40.948;73.006;2022-07-17T12:42:04;10.70;;;4.88;;
42866;SDS011;39461;40.948;73.006;2022-07-17T12:44:39;12.27;;;5.18;;
42866;SDS011;39461;40.948;73.006;2022-07-17T12:47:14;12.23;;;4.43;;
42866;SDS011;39461;40.948;73.006;2022-07-17T12:49:48;14.13;;;5.30;;
42866;SDS011;39461;40.948;73.006;2022-07-17T12:52:23;14.27;;;5.15;;
42866;SDS011;39461;40.948;73.006;2022-07-17T12:54:52;17.73;;;5.40;;
42866;SDS011;39461;40.948;73.006;2022-07-17T12:57:31;18.10;;;5.75;;
42866;SDS011;39461;40.948;73.006;2022-07-17T13:00:05;14.90;;;4.93;;
42866;SDS011;39461;40.948;73.006;2022-07-17T13:02:32;13.88;;;5.10;;
42866;SDS011;39461;40.948;73.006;2022-07-17T13:04:58;10.38;;;4.75;;
42866;SDS011;39461;40.948;73.006;2022-07-17T13:07:33;13.43;;;5.15;;
42866;SDS011;39461;40.948;73.006;2022-07-17T13:10:07;13.30;;;4.85;;
42866;SDS011;39461;40.948;73.006;2022-07-17T13:15:34;22.33;;;5.63;;
42866;SDS011;39461;40.948;73.006;2022-07-17T13:18:05;13.57;;;6.00;;
42866;SDS011;39461;40.948;73.006;2022-07-17T13:20:38;11.07;;;5.15;;
42866;SDS011;39461;40.948;73.006;2022-07-17T13:23:12;23.15;;;6.00;;
42866;SDS011;39461;40.948;73.006;2022-07-17T13:25:45;20.17;;;5.70;;
42866;SDS011;39461;40.948;73.006;2022-07-17T13:28:17;21.40;;;5.75;;
42866;SDS011;39461;40.948;73.006;2022-07-17T13:30:51;17.25;;;6.38;;
42866;SDS011;39461;40.948;73.006;2022-07-17T13:33:24;20.95;;;6.22;;
42866;SDS011;39461;40.948;73.006;2022-07-17T13:35:58;16.75;;;6.22;;
42866;SDS011;39461;40.948;73.006;2022-07-17T13:38:32;15.43;;;6.13;;
42866;SDS011;39461;40.948;73.006;2022-07-17T13:40:59;21.65;;;7.00;;
42866;SDS011;39461;40.948;73.006;2022-07-17T13:43:37;12.13;;;6.82;;
42866;SDS011;39461;40.948;73.006;2022-07-17T13:46:10;19.10;;;6.60;;
42866;SDS011;39461;40.948;73.006;2022-07-17T13:48:37;15.90;;;6.65;;
42866;SDS011;39461;40.948;73.006;2022-07-17T13:51:11;16.52;;;6.50;;
42866;SDS011;39461;40.948;73.006;2022-07-17T13:53:45;17.63;;;6.60;;
42866;SDS011;39461;40.948;73.006;2022-07-17T13:56:12;18.42;;;6.55;;
42866;SDS011;39461;40.948;73.006;2022-07-17T13:58:39;21.45;;;6.72;;
42866;SDS011;39461;40.948;73.006;2022-07-17T14:01:12;15.43;;;6.68;;
42866;SDS011;39461;40.948;73.006;2022-07-17T14:03:39;22.67;;;6.75;;
42866;SDS011;39461;40.948;73.006;2022-07-17T14:06:13;19.50;;;7.90;;
42866;SDS011;39461;40.948;73.006;2022-07-17T14:08:46;21.25;;;7.82;;
42866;SDS011;39461;40.948;73.006;2022-07-17T14:11:19;25.13;;;7.55;;
42866;SDS011;39461;40.948;73.006;2022-07-17T14:13:52;18.20;;;8.23;;
42866;SDS011;39461;40.948;73.006;2022-07-17T14:16:25;24.10;;;8.73;;
42866;SDS011;39461;40.948;73.006;2022-07-17T14:19:00;20.15;;;8.68;;
42866;SDS011;39461;40.948;73.006;2022-07-17T14:21:35;23.00;;;8.38;;
42866;SDS011;39461;40.948;73.006;2022-07-17T14:24:10;32.08;;;9.90;;
42866;SDS011;39461;40.948;73.006;2022-07-17T14:26:46;44.97;;;10.52;;
42866;SDS011;39461;40.948;73.006;2022-07-17T14:32:14;32.15;;;10.73;;
42866;SDS011;39461;40.948;73.006;2022-07-17T14:34:51;33.55;;;10.95;;
42866;SDS011;39461;40.948;73.006;2022-07-17T14:37:25;42.95;;;11.65;;
42866;SDS011;39461;40.948;73.006;2022-07-17T14:39:51;45.90;;;14.15;;
42866;SDS011;39461;40.948;73.006;2022-07-17T14:42:18;52.70;;;17.10;;
42866;SDS011;39461;40.948;73.006;2022-07-17T14:44:53;58.35;;;24.10;;
42866;SDS011;39461;40.948;73.006;2022-07-17T14:47:27;88.00;;;34.63;;
42866;SDS011;39461;40.948;73.006;2022-07-17T14:50:04;101.05;;;47.28;;
42866;SDS011;39461;40.948;73.006;2022-07-17T14:52:40;175.85;;;85.32;;
42866;SDS011;39461;40.948;73.006;2022-07-17T14:55:08;193.23;;;85.15;;
42866;SDS011;39461;40.948;73.006;2022-07-17T14:57:35;172.52;;;82.30;;
42866;SDS011;39461;40.948;73.006;2022-07-17T15:00:02;182.38;;;73.38;;
42866;SDS011;39461;40.948;73.006;2022-07-17T15:02:29;177.15;;;72.78;;
42866;SDS011;39461;40.948;73.006;2022-07-17T15:05:03;176.40;;;69.68;;
42866;SDS011;39461;40.948;73.006;2022-07-17T15:07:42;164.73;;;66.35;;
42866;SDS011;39461;40.948;73.006;2022-07-17T15:10:17;174.60;;;61.95;;
42866;SDS011;39461;40.948;73.006;2022-07-17T15:12:50;134.32;;;57.95;;
42866;SDS011;39461;40.948;73.006;2022-07-17T15:15:24;132.23;;;49.35;;
42866;SDS011;39461;40.948;73.006;2022-07-17T15:18:00;125.18;;;49.83;;
42866;SDS011;39461;40.948;73.006;2022-07-17T15:20:34;112.30;;;46.13;;
42866;SDS011;39461;40.948;73.006;2022-07-17T15:23:10;113.35;;;44.90;;
42866;SDS011;39461;40.948;73.006;2022-07-17T15:25:45;103.85;;;45.65;;
42866;SDS011;39461;40.948;73.006;2022-07-17T15:28:19;118.40;;;53.05;;
42866;SDS011;39461;40.948;73.006;2022-07-17T15:30:54;153.00;;;65.63;;
42866;SDS011;39461;40.948;73.006;2022-07-17T15:33:29;125.45;;;59.03;;
42866;SDS011;39461;40.948;73.006;2022-07-17T15:36:04;135.52;;;62.65;;
42866;SDS011;39461;40.948;73.006;2022-07-17T15:38:40;112.55;;;44.42;;
42866;SDS011;39461;40.948;73.006;2022-07-17T15:41:14;77.32;;;40.08;;
42866;SDS011;39461;40.948;73.006;2022-07-17T15:43:49;73.82;;;35.38;;
42866;SDS011;39461;40.948;73.006;2022-07-17T15:46:26;86.55;;;35.53;;
42866;SDS011;39461;40.948;73.006;2022-07-17T15:48:55;71.13;;;32.60;;